Terminal Aerodrome Forecast
Issued by NWS

Home | Current Version | Previous Version | Text Only | Print | Product List | Glossary On
Versions: 1 2 3 4 5 6 7 8 9 10 11 12 13 14 15 16 17 18 19 20 21 22 23 24 25 26 27 28 29 30 31 32 33 34 35 36 37 38 39 40 41 42
000
FTUS41 KRNK 021742
TAFLWB
TAF
KLWB 021742Z 0218/0318 26005KT 6SM -SHRA SCT012 OVC030
      TEMPO 0218/0220 2SM +SHRA BR OVC012
     FM022000 VRB04KT 4SM SHRA BR VCTS SCT013 OVC025CB
     FM030000 00000KT 2SM -SHRA BR BKN007 OVC013
     FM030800 VRB03KT 1SM -SHRA BR OVC013=

USA.gov is the U.S. government's official web portal to all federal, state and local government web resources and services.